Time;durP1;ratioP1;P1;durP2;ratioP2;P2;SDS_P1;SDS_P2;PMS_P1;PMS_P2;Temp;Humidity;BMP_temperature;BMP_pressure;BME280_temperature;BME280_humidity;BME280_pressure;Samples;Min_cycle;Max_cycle;Signal;HPM_P1;HPM_P2
2021/12/20 00:01:42;;;;;;;;;25.00;17.00;;;;;-146.39;100.00;62182.44;6281111;20;3574307;-42
2021/12/20 00:04:11;;;;;;;;;17.67;14.33;;;;;-146.39;100.00;62182.44;6278652;20;3553529;-41
2021/12/20 00:06:38;;;;;;;;;19.00;16.00;;;;;-146.39;100.00;62182.44;6308791;20;2813783;-41
2021/12/20 00:09:07;;;;;;;;;25.67;23.33;;;;;-146.39;100.00;62182.44;6281215;20;3577408;-42
2021/12/20 00:11:36;;;;;;;;;14.00;14.00;;;;;-146.39;100.00;62182.44;6275940;20;2812841;-41
2021/12/20 00:14:04;;;;;;;;;21.00;17.00;;;;;-146.39;100.00;62182.44;6315064;20;2829430;-41
2021/12/20 00:16:33;;;;;;;;;15.33;14.00;;;;;-146.39;100.00;62182.44;6279904;20;2809235;-42
2021/12/20 00:19:04;;;;;;;;;15.00;15.00;;;;;-146.39;100.00;62182.44;6333794;20;2813980;-41
2021/12/20 00:21:33;;;;;;;;;17.00;13.00;;;;;-146.39;100.00;62182.44;6307189;20;2796102;-43
2021/12/20 00:24:03;;;;;;;;;23.00;17.00;;;;;-146.39;100.00;62182.44;6287404;20;3554450;-43
2021/12/20 00:26:31;;;;;;;;;19.00;15.00;;;;;-146.39;100.00;62182.44;6317491;20;2816340;-43
2021/12/20 00:29:00;;;;;;;;;18.67;16.33;;;;;-146.39;100.00;62182.44;6285474;20;3555599;-42
2021/12/20 00:31:30;;;;;;;;;21.00;18.00;;;;;-146.39;100.00;62182.44;6315073;20;3558594;-41
2021/12/20 00:33:58;;;;;;;;;18.00;14.00;;;;;-146.39;100.00;62182.44;6317620;20;2815973;-41
2021/12/20 00:36:29;;;;;;;;;15.50;12.50;;;;;-146.39;100.00;62182.44;6316079;20;2794223;-41
2021/12/20 00:41:44;;;;;;;;;13.00;9.50;;;;;-146.39;100.00;62182.44;6282030;20;2777586;-41
2021/12/20 00:44:12;;;;;;;;;12.00;12.00;;;;;-146.39;100.00;62182.44;6286809;20;2796268;-41
2021/12/20 00:46:53;;;;;;;;;11.00;11.00;;;;;-146.39;100.00;62182.44;6286487;20;2783595;-41
2021/12/20 00:49:21;;;;;;;;;18.00;9.00;;;;;-146.39;100.00;62182.44;6286755;20;2789652;-41
2021/12/20 00:51:49;;;;;;;;;11.00;9.00;;;;;-146.39;100.00;62182.44;6286579;20;2761767;-41
2021/12/20 00:54:19;;;;;;;;;13.00;10.00;;;;;-146.39;100.00;62182.44;6310872;20;2775239;-43
2021/12/20 00:56:48;;;;;;;;;11.00;9.50;;;;;-146.39;100.00;62182.44;6285044;20;2774204;-43
2021/12/20 00:59:18;;;;;;;;;9.00;9.00;;;;;-146.39;100.00;62182.44;6311407;20;2717970;-42
2021/12/20 01:01:46;;;;;;;;;9.00;6.50;;;;;-146.39;100.00;62182.44;6318390;20;2739880;-41
2021/12/20 01:04:14;;;;;;;;;5.50;5.50;;;;;-146.39;100.00;62182.44;6288856;20;2744053;-44
2021/12/20 01:06:42;;;;;;;;;10.00;7.00;;;;;-146.39;100.00;62182.44;6315266;20;2754444;-42
2021/12/20 01:09:09;;;;;;;;;12.50;7.00;;;;;-146.39;100.00;62182.44;6287416;20;2760664;-42
2021/12/20 01:11:41;;;;;;;;;5.50;5.50;;;;;-146.39;100.00;62182.44;6300407;20;1821181;-42
2021/12/20 01:14:11;;;;;;;;;7.75;5.50;;;;;-146.39;100.00;62182.44;6333496;20;1818940;-41
2021/12/20 01:16:40;;;;;;;;;4.00;4.00;;;;;-146.39;100.00;62182.44;6335183;20;1824304;-42
2021/12/20 01:19:09;;;;;;;;;1.33;1.33;;;;;-146.39;100.00;62182.44;6338544;20;1812787;-40
2021/12/20 01:21:37;;;;;;;;;4.25;4.00;;;;;-146.39;100.00;62182.44;6334640;20;1815834;-40
2021/12/20 01:24:05;;;;;;;;;1.67;1.00;;;;;-146.39;100.00;62182.44;6319224;20;3434601;-41
2021/12/20 01:26:34;;;;;;;;;1.00;1.00;;;;;-146.39;100.00;62182.44;6318371;20;3444156;-46
2021/12/20 01:29:02;;;;;;;;;3.00;2.00;;;;;-146.39;100.00;62182.44;6333876;20;1825449;-42
2021/12/20 01:31:31;;;;;;;;;4.00;3.75;;;;;-146.39;100.00;62182.44;6330915;20;1821211;-41
2021/12/20 01:34:00;;;;;;;;;4.25;4.25;;;;;-146.39;100.00;62182.44;6335832;20;1814923;-43
2021/12/20 01:36:29;;;;;;;;;7.00;7.00;;;;;-146.39;100.00;62182.44;6335730;20;1821225;-42
2021/12/20 01:38:57;;;;;;;;;6.50;5.75;;;;;-146.39;100.00;62182.44;6333805;20;1821282;-42
2021/12/20 01:41:29;;;;;;;;;12.50;8.50;;;;;-146.39;100.00;62182.44;6314224;20;2775265;-41
2021/12/20 01:43:57;;;;;;;;;17.00;11.00;;;;;-146.39;100.00;62182.44;6282685;20;2816904;-43
2021/12/20 01:46:25;;;;;;;;;10.50;10.50;;;;;-146.39;100.00;62182.44;6286572;20;2781515;-41
2021/12/20 01:48:53;;;;;;;;;14.00;13.00;;;;;-146.39;100.00;62182.44;6282722;20;2790140;-41
2021/12/20 01:51:48;;;;;;;;;9.50;9.50;;;;;-146.39;100.00;62182.44;6283250;20;2762772;-42
2021/12/20 01:54:17;;;;;;;;;9.50;9.50;;;;;-146.39;100.00;62182.44;6284053;20;2764824;-41
2021/12/20 01:56:45;;;;;;;;;11.50;9.50;;;;;-146.39;100.00;62182.44;6283676;20;2765906;-41
2021/12/20 01:59:14;;;;;;;;;6.25;2.50;;;;;-146.39;100.00;62182.44;6301701;20;1812802;-41
2021/12/20 02:01:44;;;;;;;;;16.00;12.00;;;;;-146.39;100.00;62182.44;6312444;20;2787779;-41
2021/12/20 02:04:13;;;;;;;;;12.00;9.00;;;;;-146.39;100.00;62182.44;6286843;20;2753519;-41
2021/12/20 02:06:46;;;;;;;;;9.00;9.00;;;;;-146.39;100.00;62182.44;6284389;20;2741942;-43
2021/12/20 02:09:19;;;;;;;;;5.50;5.50;;;;;-146.39;100.00;62182.44;6318770;20;2747194;-42
2021/12/20 02:11:50;;;;;;;;;9.00;8.00;;;;;-146.39;100.00;62182.44;6332163;20;1816144;-45
2021/12/20 02:14:19;;;;;;;;;9.00;9.00;;;;;-146.39;100.00;62182.44;6315175;20;2742951;-41
2021/12/20 02:16:49;;;;;;;;;10.40;7.80;;;;;-146.39;100.00;62182.44;6308899;20;2751319;-44
2021/12/20 02:19:18;;;;;;;;;6.00;6.00;;;;;-146.39;100.00;62182.44;6315200;20;2749415;-42
2021/12/20 02:21:47;;;;;;;;;7.75;6.50;;;;;-146.39;100.00;62182.44;6333941;20;1818136;-41
2021/12/20 02:24:16;;;;;;;;;7.50;5.25;;;;;-146.39;100.00;62182.44;6331367;20;1819218;-41
2021/12/20 02:26:44;;;;;;;;;9.50;6.25;;;;;-146.39;100.00;62182.44;6333629;20;1827423;-41
2021/12/20 02:29:15;;;;;;;;;7.00;5.50;;;;;-146.39;100.00;62182.44;6333028;20;1822231;-41
2021/12/20 02:37:29;;;;;;;;;5.00;3.50;;;;;-146.39;100.00;62182.44;6332228;20;1810737;-41
2021/12/20 02:39:57;;;;;;;;;5.25;2.00;;;;;-146.39;100.00;62182.44;6331968;20;1820256;-42
2021/12/20 02:42:32;;;;;;;;;3.50;3.50;;;;;-146.39;100.00;62182.44;6332792;20;1825479;-41
2021/12/20 02:45:12;;;;;;;;;3.75;1.00;;;;;-146.39;100.00;62182.44;6334898;20;1818056;-42
2021/12/20 02:47:45;;;;;;;;;1.00;1.00;;;;;-146.39;100.00;62182.44;6317742;20;3441895;-41
2021/12/20 02:50:15;;;;;;;;;1.67;1.67;;;;;-146.39;100.00;62182.44;6314785;20;3448262;-42
2021/12/20 02:52:44;;;;;;;;;2.00;2.00;;;;;-146.39;100.00;62182.44;6301317;20;1818046;-41
2021/12/20 02:55:12;;;;;;;;;4.00;1.00;;;;;-146.39;100.00;62182.44;6315948;20;3445065;-41
2021/12/20 02:57:41;;;;;;;;;3.50;1.00;;;;;-146.39;100.00;62182.44;6333253;20;1809716;-41
2021/12/20 03:00:11;;;;;;;;;8.00;2.50;;;;;-146.39;100.00;62182.44;6330482;20;1822228;-41
2021/12/20 03:02:41;;;;;;;;;2.00;2.00;;;;;-146.39;100.00;62182.44;6333189;20;1823258;-42
2021/12/20 03:05:12;;;;;;;;;2.00;2.00;;;;;-146.39;100.00;62182.44;6314519;20;3454497;-41
2021/12/20 03:07:49;;;;;;;;;4.00;1.67;;;;;-146.39;100.00;62182.44;6315445;20;3442951;-42
2021/12/20 03:10:21;;;;;;;;;0.50;0.50;;;;;-146.39;100.00;62182.44;6331675;20;1812345;-41
2021/12/20 03:12:53;;;;;;;;;1.00;0.00;;;;;-146.39;100.00;62182.44;6311532;20;3442983;-40
2021/12/20 03:15:24;;;;;;;;;0.67;0.67;;;;;-146.39;100.00;62182.44;6313809;20;2731595;-41
2021/12/20 03:17:54;;;;;;;;;1.00;1.00;;;;;-146.39;100.00;62182.44;6312253;20;3440905;-41
2021/12/20 03:20:23;;;;;;;;;1.00;1.00;;;;;-146.39;100.00;62182.44;6310233;20;3429516;-40
2021/12/20 03:22:51;;;;;;;;;4.33;1.00;;;;;-146.39;100.00;62182.44;6314960;20;3430652;-42
2021/12/20 03:25:21;;;;;;;;;1.67;1.67;;;;;-146.39;100.00;62182.44;6316867;20;3442933;-42
2021/12/20 03:27:48;;;;;;;;;1.00;1.00;;;;;-146.39;100.00;62182.44;6315838;20;2721236;-41
2021/12/20 03:30:17;;;;;;;;;4.00;2.00;;;;;-146.39;100.00;62182.44;6331618;20;1822199;-41
2021/12/20 03:32:45;;;;;;;;;1.00;1.00;;;;;-146.39;100.00;62182.44;6315843;20;3433590;-42
2021/12/20 03:35:13;;;;;;;;;1.00;1.00;;;;;-146.39;100.00;62182.44;6314849;20;3432592;-42
2021/12/20 03:37:42;;;;;;;;;0.00;0.00;;;;;-146.39;100.00;62182.44;6314834;20;3436761;-42
2021/12/20 03:40:12;;;;;;;;;1.00;1.00;;;;;-146.39;100.00;62182.44;6315388;20;3435640;-41
2021/12/20 03:42:44;;;;;;;;;1.00;1.00;;;;;-146.39;100.00;62182.44;6314804;20;3435847;-41
2021/12/20 03:45:14;;;;;;;;;0.00;0.00;;;;;-146.39;100.00;62182.44;6313080;20;3437786;-40
2021/12/20 03:47:43;;;;;;;;;1.33;0.00;;;;;-146.39;100.00;62182.44;6315212;20;3435637;-42
2021/12/20 03:50:14;;;;;;;;;1.67;1.00;;;;;-146.39;100.00;62182.44;6314018;20;3435704;-41
2021/12/20 03:52:42;;;;;;;;;1.00;1.00;;;;;-146.39;100.00;62182.44;6313537;20;3445031;-41
2021/12/20 03:55:13;;;;;;;;;1.00;1.00;;;;;-146.39;100.00;62182.44;6312471;20;3434764;-41
2021/12/20 03:57:42;;;;;;;;;1.00;1.00;;;;;-146.39;100.00;62182.44;6315559;20;3437811;-41
2021/12/20 04:00:16;;;;;;;;;0.75;0.75;;;;;-146.39;100.00;62182.44;6332032;20;1813845;-43
2021/12/20 04:02:46;;;;;;;;;2.67;1.00;;;;;-146.39;100.00;62182.44;6316663;20;3444028;-47
2021/12/20 04:05:16;;;;;;;;;1.25;1.25;;;;;-146.39;100.00;62182.44;6329955;20;1809693;-54
2021/12/20 04:07:45;;;;;;;;;0.00;0.00;;;;;-146.39;100.00;62182.44;6314636;20;3437891;-50
2021/12/20 04:10:12;;;;;;;;;1.67;0.33;;;;;-146.39;100.00;62182.44;6314004;20;3448185;-52
2021/12/20 04:12:40;;;;;;;;;0.00;0.00;;;;;-146.39;100.00;62182.44;6314700;20;3434748;-51
2021/12/20 04:15:09;;;;;;;;;2.00;1.00;;;;;-146.39;100.00;62182.44;6315449;20;3440954;-52
2021/12/20 04:17:37;;;;;;;;;4.00;2.00;;;;;-146.39;100.00;62182.44;6314083;20;3435748;-52
2021/12/20 04:20:06;;;;;;;;;1.00;1.00;;;;;-146.39;100.00;62182.44;6311524;20;3439465;-48
2021/12/20 04:22:35;;;;;;;;;2.67;2.00;;;;;-146.39;100.00;62182.44;6313215;20;3450296;-52
2021/12/20 04:25:04;;;;;;;;;1.00;1.00;;;;;-146.39;100.00;62182.44;6315406;20;3444017;-48
2021/12/20 04:27:33;;;;;;;;;0.67;0.67;;;;;-146.39;100.00;62182.44;6312780;20;3450219;-49
2021/12/20 04:30:09;;;;;;;;;1.33;1.00;;;;;-146.39;100.00;62182.44;6314008;20;3437760;-50
2021/12/20 04:32:42;;;;;;;;;4.33;2.00;;;;;-146.39;100.00;62182.44;6314013;20;3451262;-48
2021/12/20 04:35:15;;;;;;;;;5.25;2.00;;;;;-146.39;100.00;62182.44;6327959;20;1823203;-51
2021/12/20 04:37:46;;;;;;;;;1.00;1.00;;;;;-146.39;100.00;62182.44;6314479;20;3442106;-53
2021/12/20 04:40:20;;;;;;;;;1.00;1.00;;;;;-146.39;100.00;62182.44;6311767;20;3435736;-51
2021/12/20 04:42:58;;;;;;;;;2.00;0.67;;;;;-146.39;100.00;62182.44;6314358;20;3442076;-54
2021/12/20 04:45:29;;;;;;;;;1.00;1.00;;;;;-146.39;100.00;62182.44;6313546;20;3434633;-50
2021/12/20 04:47:58;;;;;;;;;1.00;1.00;;;;;-146.39;100.00;62182.44;6314762;20;3450228;-50
2021/12/20 04:50:28;;;;;;;;;1.00;1.00;;;;;-146.39;100.00;62182.44;6329570;20;1802365;-48
2021/12/20 04:52:57;;;;;;;;;0.00;0.00;;;;;-146.39;100.00;62182.44;6314466;20;3444002;-53
2021/12/20 04:55:27;;;;;;;;;0.67;0.33;;;;;-146.39;100.00;62182.44;6314832;20;3442448;-53
2021/12/20 04:58:01;;;;;;;;;1.00;1.00;;;;;-146.39;100.00;62182.44;6328377;20;1815968;-53
2021/12/20 05:00:33;;;;;;;;;5.00;2.00;;;;;-146.39;100.00;62182.44;6311915;20;3465883;-51
2021/12/20 05:03:05;;;;;;;;;2.00;2.00;;;;;-146.39;100.00;62182.44;6298209;20;1810098;-52
2021/12/20 05:05:34;;;;;;;;;0.00;0.00;;;;;-146.39;100.00;62182.44;6314262;20;3437734;-51
2021/12/20 05:08:04;;;;;;;;;1.00;1.00;;;;;-146.39;100.00;62182.44;6317217;20;2718065;-51
2021/12/20 05:10:34;;;;;;;;;1.00;1.00;;;;;-146.39;100.00;62182.44;6316187;20;3438757;-53
2021/12/20 05:13:12;;;;;;;;;1.67;1.00;;;;;-146.39;100.00;62182.44;6319256;20;3433687;-52
2021/12/20 05:15:45;;;;;;;;;1.00;1.00;;;;;-146.39;100.00;62182.44;6317451;20;3446115;-49
2021/12/20 05:18:13;;;;;;;;;0.00;0.00;;;;;-146.39;100.00;62182.44;6319273;20;3437722;-50
2021/12/20 05:20:41;;;;;;;;;1.00;1.00;;;;;-146.39;100.00;62182.44;6317536;20;3443984;-52
2021/12/20 05:23:09;;;;;;;;;1.00;1.00;;;;;-146.39;100.00;62182.44;6318562;20;3445073;-50
2021/12/20 05:25:38;;;;;;;;;1.00;1.00;;;;;-146.39;100.00;62182.44;6317631;20;3437837;-53
2021/12/20 05:28:08;;;;;;;;;1.00;1.00;;;;;-146.39;100.00;62182.44;6318161;20;3439982;-53
2021/12/20 05:30:37;;;;;;;;;1.00;1.00;;;;;-146.39;100.00;62182.44;6317794;20;3438826;-49
2021/12/20 05:33:08;;;;;;;;;9.83;9.00;;;;;-146.39;100.00;62182.44;6358631;20;1816947;-53
2021/12/20 05:35:36;;;;;;;;;4.00;2.00;;;;;-146.39;100.00;62182.44;6305063;20;1822215;-51
2021/12/20 05:38:05;;;;;;;;;2.00;2.00;;;;;-146.39;100.00;62182.44;6335833;20;1818089;-49
2021/12/20 05:40:35;;;;;;;;;1.00;1.00;;;;;-146.39;100.00;62182.44;6317334;20;3435718;-49
2021/12/20 05:43:05;;;;;;;;;4.75;2.00;;;;;-146.39;100.00;62182.44;6334529;20;1822236;-49
2021/12/20 05:45:33;;;;;;;;;1.00;1.00;;;;;-146.39;100.00;62182.44;6318550;20;3435779;-49
2021/12/20 05:48:02;;;;;;;;;2.00;2.00;;;;;-146.39;100.00;62182.44;6336308;20;1822189;-41
2021/12/20 05:50:30;;;;;;;;;1.00;1.00;;;;;-146.39;100.00;62182.44;6318503;20;3438795;-42
2021/12/20 05:52:59;;;;;;;;;1.00;1.00;;;;;-146.39;100.00;62182.44;6318626;20;3435688;-39
2021/12/20 05:55:27;;;;;;;;;0.67;0.00;;;;;-146.39;100.00;62182.44;6318183;20;3435678;-40
2021/12/20 05:57:55;;;;;;;;;1.33;1.00;;;;;-146.39;100.00;62182.44;6317361;20;3436070;-40
2021/12/20 06:00:23;;;;;;;;;1.00;1.00;;;;;-146.39;100.00;62182.44;6315939;20;3448147;-41
2021/12/20 06:02:53;;;;;;;;;4.00;4.00;;;;;-146.39;100.00;62182.44;6331264;20;1810694;-41
2021/12/20 06:05:22;;;;;;;;;4.00;4.00;;;;;-146.39;100.00;62182.44;6335417;20;1822159;-42
2021/12/20 06:07:51;;;;;;;;;4.00;4.00;;;;;-146.39;100.00;62182.44;6330961;20;1821123;-42
2021/12/20 06:10:20;;;;;;;;;1.75;1.50;;;;;-146.39;100.00;62182.44;6334722;20;1817617;-40
2021/12/20 06:12:49;;;;;;;;;5.50;4.00;;;;;-146.39;100.00;62182.44;6335333;20;1848238;-40
2021/12/20 06:15:18;;;;;;;;;6.50;4.50;;;;;-146.39;100.00;62182.44;6328658;20;1825366;-41
2021/12/20 06:17:46;;;;;;;;;9.00;5.00;;;;;-146.39;100.00;62182.44;6314697;20;2762860;-41
2021/12/20 06:20:15;;;;;;;;;11.00;5.00;;;;;-146.39;100.00;62182.44;6299696;20;1826382;-42
2021/12/20 06:22:43;;;;;;;;;7.00;5.00;;;;;-146.39;100.00;62182.44;6314982;20;2754455;-41
2021/12/20 06:25:13;;;;;;;;;4.00;4.00;;;;;-146.39;100.00;62182.44;6303483;20;1816960;-42
2021/12/20 06:27:41;;;;;;;;;4.00;4.00;;;;;-146.39;100.00;62182.44;6316916;20;3460635;-44
2021/12/20 06:30:12;;;;;;;;;7.00;4.33;;;;;-146.39;100.00;62182.44;6317434;20;3453332;-42
2021/12/20 06:32:44;;;;;;;;;5.00;4.00;;;;;-146.39;100.00;62182.44;6330076;20;1821237;-43
2021/12/20 06:35:34;;;;;;;;;33.33;22.00;;;;;-146.39;100.00;62182.44;6314177;20;3582678;-41
2021/12/20 06:38:06;;;;;;;;;10.17;8.17;;;;;-146.39;100.00;62182.44;6354166;20;1809736;-40
2021/12/20 06:40:36;;;;;;;;;8.50;6.25;;;;;-146.39;100.00;62182.44;6302525;20;1821193;-41
2021/12/20 06:43:05;;;;;;;;;9.00;5.00;;;;;-146.39;100.00;62182.44;6330836;20;1824725;-41
2021/12/20 06:45:34;;;;;;;;;18.50;15.00;;;;;-146.39;100.00;62182.44;6313951;20;2812858;-42
2021/12/20 06:48:06;;;;;;;;;28.83;21.50;;;;;-146.39;100.00;62182.44;6303812;20;3574306;-41
2021/12/20 06:50:34;;;;;;;;;11.67;8.33;;;;;-146.39;100.00;62182.44;6281188;20;3468020;-40
2021/12/20 06:53:08;;;;;;;;;10.75;8.50;;;;;-146.39;100.00;62182.44;6299251;20;1830561;-40
2021/12/20 06:55:37;;;;;;;;;5.50;5.50;;;;;-146.39;100.00;62182.44;6334459;20;1825328;-41
2021/12/20 06:58:06;;;;;;;;;14.40;13.40;;;;;-146.39;100.00;62182.44;6334135;20;2786700;-42
2021/12/20 07:00:35;;;;;;;;;12.50;11.00;;;;;-146.39;100.00;62182.44;6281721;20;2769101;-41
2021/12/20 07:03:04;;;;;;;;;9.00;8.00;;;;;-146.39;100.00;62182.44;6281666;20;2755455;-43
2021/12/20 07:05:32;;;;;;;;;9.00;5.00;;;;;-146.39;100.00;62182.44;6284633;20;2748209;-43
2021/12/20 07:08:02;;;;;;;;;8.33;5.00;;;;;-146.39;100.00;62182.44;6337816;20;1820048;-42
2021/12/20 07:10:31;;;;;;;;;10.25;6.00;;;;;-146.39;100.00;62182.44;6331294;20;1825475;-45
2021/12/20 07:12:59;;;;;;;;;17.50;14.50;;;;;-146.39;100.00;62182.44;6317184;20;2797115;-42
2021/12/20 07:15:28;;;;;;;;;22.33;16.67;;;;;-146.39;100.00;62182.44;6285714;20;2830602;-45
2021/12/20 07:17:55;;;;;;;;;12.00;8.00;;;;;-146.39;100.00;62182.44;6315658;20;2769031;-43
2021/12/20 07:20:25;;;;;;;;;11.00;8.25;;;;;-146.39;100.00;62182.44;6303129;20;1818049;-42
2021/12/20 07:22:54;;;;;;;;;21.33;16.00;;;;;-146.39;100.00;62182.44;6314922;20;3571050;-42
2021/12/20 07:25:22;;;;;;;;;9.50;8.50;;;;;-146.39;100.00;62182.44;6319261;20;2745039;-42
2021/12/20 07:27:52;;;;;;;;;8.00;5.00;;;;;-146.39;100.00;62182.44;6314890;20;2748582;-41
2021/12/20 07:30:21;;;;;;;;;9.50;9.50;;;;;-146.39;100.00;62182.44;6313536;20;2769150;-41
2021/12/20 07:32:49;;;;;;;;;5.00;5.00;;;;;-146.39;100.00;62182.44;6289549;20;3459614;-42
2021/12/20 07:35:17;;;;;;;;;14.00;9.00;;;;;-146.39;100.00;62182.44;6319484;20;2763816;-42
2021/12/20 07:37:45;;;;;;;;;10.50;9.50;;;;;-146.39;100.00;62182.44;6286012;20;2771063;-43
2021/12/20 07:40:13;;;;;;;;;12.50;9.00;;;;;-146.39;100.00;62182.44;6282415;20;2756489;-43
2021/12/20 07:42:41;;;;;;;;;14.00;13.00;;;;;-146.39;100.00;62182.44;6285945;20;2811705;-42
2021/12/20 07:45:11;;;;;;;;;14.40;12.60;;;;;-146.39;100.00;62182.44;6308096;20;2793015;-44
2021/12/20 07:47:50;;;;;;;;;11.20;9.20;;;;;-146.39;100.00;62182.44;6312164;20;2763809;-40
2021/12/20 07:50:19;;;;;;;;;8.50;8.50;;;;;-146.39;100.00;62182.44;6316399;20;2735672;-40
2021/12/20 07:52:48;;;;;;;;;9.50;9.50;;;;;-146.39;100.00;62182.44;6316912;20;2759791;-39
2021/12/20 07:55:17;;;;;;;;;23.67;23.33;;;;;-146.39;100.00;62182.44;6280356;20;3583592;-42
2021/12/20 07:57:47;;;;;;;;;11.00;9.20;;;;;-146.39;100.00;62182.44;6310469;20;2769050;-42
2021/12/20 08:00:16;;;;;;;;;16.50;10.00;;;;;-146.39;100.00;62182.44;6312106;20;2791919;-41
2021/12/20 08:02:45;;;;;;;;;9.00;6.00;;;;;-146.39;100.00;62182.44;6285271;20;2752325;-41
2021/12/20 08:05:15;;;;;;;;;7.75;5.25;;;;;-146.39;100.00;62182.44;6304433;20;1818773;-42
2021/12/20 08:07:45;;;;;;;;;7.25;6.50;;;;;-146.39;100.00;62182.44;6332077;20;1818486;-41
2021/12/20 08:10:14;;;;;;;;;5.50;5.50;;;;;-146.39;100.00;62182.44;6334162;20;1816484;-41
2021/12/20 08:12:45;;;;;;;;;8.00;5.00;;;;;-146.39;100.00;62182.44;6335326;20;1817037;-43
2021/12/20 08:15:15;;;;;;;;;10.75;9.25;;;;;-146.39;100.00;62182.44;6336168;20;1814273;-42
2021/12/20 08:17:43;;;;;;;;;10.00;6.00;;;;;-146.39;100.00;62182.44;6316395;20;2767953;-41
2021/12/20 08:20:12;;;;;;;;;11.00;9.00;;;;;-146.39;100.00;62182.44;6284371;20;2769013;-43
2021/12/20 08:22:43;;;;;;;;;5.50;5.50;;;;;-146.39;100.00;62182.44;6302822;20;1825365;-43
2021/12/20 08:25:14;;;;;;;;;6.00;5.25;;;;;-146.39;100.00;62182.44;6333062;20;1815972;-41
2021/12/20 08:27:42;;;;;;;;;4.75;4.50;;;;;-146.39;100.00;62182.44;6334603;20;1814895;-41
2021/12/20 08:30:12;;;;;;;;;8.75;5.25;;;;;-146.39;100.00;62182.44;6334530;20;1812765;-40
2021/12/20 08:32:41;;;;;;;;;8.00;6.00;;;;;-146.39;100.00;62182.44;6331983;20;1838933;-40
2021/12/20 08:35:12;;;;;;;;;5.50;5.50;;;;;-146.39;100.00;62182.44;6336731;20;1819091;-40
2021/12/20 08:37:43;;;;;;;;;7.75;5.00;;;;;-146.39;100.00;62182.44;6333980;20;1819132;-41
2021/12/20 08:40:15;;;;;;;;;7.75;5.50;;;;;-146.39;100.00;62182.44;6331915;20;1815977;-42
2021/12/20 08:42:46;;;;;;;;;2.00;2.00;;;;;-146.39;100.00;62182.44;6339404;20;1816486;-41
2021/12/20 08:45:18;;;;;;;;;5.00;3.50;;;;;-146.39;100.00;62182.44;6338120;20;1819067;-41
2021/12/20 08:47:51;;;;;;;;;53.50;43.00;;;;;-146.39;100.00;62182.44;6316031;20;2489852;-43
2021/12/20 08:50:23;;;;;;;;;5.00;5.00;;;;;-146.39;100.00;62182.44;6305068;20;1821160;-41
2021/12/20 08:52:53;;;;;;;;;4.00;4.00;;;;;-146.39;100.00;62182.44;6340036;20;1816965;-42
2021/12/20 08:55:23;;;;;;;;;30.50;25.00;;;;;-146.39;100.00;62182.44;6319957;20;2853384;-41
2021/12/20 08:57:53;;;;;;;;;4.33;4.33;;;;;-146.39;100.00;62182.44;6291692;20;3458548;-41
2021/12/20 09:00:27;;;;;;;;;5.00;3.00;;;;;-146.39;100.00;62182.44;6338650;20;1811535;-43
2021/12/20 09:02:57;;;;;;;;;5.75;3.00;;;;;-146.39;100.00;62182.44;6337129;20;1810722;-42
2021/12/20 09:05:29;;;;;;;;;6.00;3.00;;;;;-146.39;100.00;62182.44;6339135;20;1823265;-43
2021/12/20 09:08:00;;;;;;;;;6.00;2.25;;;;;-146.39;100.00;62182.44;6339773;20;1822695;-42
2021/12/20 09:10:32;;;;;;;;;8.00;6.50;;;;;-146.39;100.00;62182.44;6322186;20;2753442;-41
2021/12/20 09:13:03;;;;;;;;;4.00;4.00;;;;;-146.39;100.00;62182.44;6306058;20;1835783;-42
2021/12/20 09:15:31;;;;;;;;;10.50;10.50;;;;;-146.39;100.00;62182.44;6321886;20;2791936;-43
2021/12/20 09:18:01;;;;;;;;;6.00;3.50;;;;;-146.39;100.00;62182.44;6304626;20;1815975;-41
2021/12/20 09:20:30;;;;;;;;;3.67;3.67;;;;;-146.39;100.00;62182.44;6342054;20;1825382;-42
2021/12/20 09:23:07;;;;;;;;;1.00;1.00;;;;;-146.39;100.00;62182.44;6338750;20;1807568;-42
2021/12/20 09:25:43;;;;;;;;;38.00;32.50;;;;;-146.39;100.00;62182.44;6320330;20;2856515;-41
2021/12/20 09:28:15;;;;;;;;;13.00;12.00;;;;;-146.39;100.00;62182.44;6311975;20;2812746;-42
2021/12/20 09:30:46;;;;;;;;;6.25;6.00;;;;;-146.39;100.00;62182.44;6308080;20;1817842;-44
2021/12/20 09:33:15;;;;;;;;;5.50;2.00;;;;;-146.39;100.00;62182.44;6323149;20;2739817;-41
2021/12/20 09:35:44;;;;;;;;;2.00;2.00;;;;;-146.39;100.00;62182.44;6323818;20;2746166;-43
2021/12/20 09:38:16;;;;;;;;;2.50;2.50;;;;;-146.39;100.00;62182.44;6289174;20;2754602;-43
2021/12/20 09:43:49;;;;;;;;;4.75;4.00;;;;;-146.39;100.00;62182.44;6336796;20;1823280;-41
2021/12/20 09:46:24;;;;;;;;;16.50;10.00;;;;;-146.39;100.00;62182.44;6318714;20;2777068;-42
2021/12/20 09:48:52;;;;;;;;;11.00;10.00;;;;;-146.39;100.00;62182.44;6287172;20;2784772;-41
2021/12/20 09:51:21;;;;;;;;;2.00;2.00;;;;;-146.39;100.00;62182.44;6304194;20;1818194;-43
2021/12/20 09:53:50;;;;;;;;;6.00;5.00;;;;;-146.39;100.00;62182.44;6335599;20;1819118;-42
2021/12/20 09:56:22;;;;;;;;;2.75;2.75;;;;;-146.39;100.00;62182.44;6338471;20;1822215;-41
2021/12/20 09:58:57;;;;;;;;;2.50;2.50;;;;;-146.39;100.00;62182.44;6334639;20;1825145;-41
2021/12/20 10:01:28;;;;;;;;;5.00;2.00;;;;;-146.39;100.00;62182.44;6319993;20;2752357;-42
2021/12/20 10:03:57;;;;;;;;;1.50;1.50;;;;;-146.39;100.00;62182.44;6306257;20;1802232;-40
2021/12/20 10:06:27;;;;;;;;;3.50;3.50;;;;;-146.39;100.00;62182.44;6334458;20;1816998;-44
2021/12/20 10:09:03;;;;;;;;;11.40;8.00;;;;;-146.39;100.00;62182.44;6343431;20;2763901;-42
2021/12/20 10:11:31;;;;;;;;;38.50;27.50;;;;;-146.39;100.00;62182.44;6315774;20;2840857;-41
2021/12/20 10:14:09;;;;;;;;;12.50;12.50;;;;;-146.39;100.00;62182.44;6287001;20;2791937;-43
2021/12/20 10:16:42;;;;;;;;;17.67;14.33;;;;;-146.39;100.00;62182.44;6284725;20;2819042;-43
2021/12/20 10:19:34;;;;;;;;;4.00;2.50;;;;;-146.39;100.00;62182.44;6319184;20;2754423;-40
2021/12/20 10:22:36;;;;;;;;;9.00;5.00;;;;;-146.39;100.00;62182.44;6288769;20;2761794;-42
2021/12/20 10:25:23;;;;;;;;;10.00;6.00;;;;;-146.39;100.00;62182.44;6316199;20;2772637;-40
2021/12/20 10:27:52;;;;;;;;;4.75;4.50;;;;;-146.39;100.00;62182.44;6303871;20;1820142;-41
2021/12/20 10:30:31;;;;;;;;;11.00;7.00;;;;;-146.39;100.00;62182.44;6317545;20;2768987;-41
2021/12/20 10:33:02;;;;;;;;;6.25;5.00;;;;;-146.39;100.00;62182.44;6308143;20;1825346;-43
2021/12/20 10:35:42;;;;;;;;;3.00;3.00;;;;;-146.39;100.00;62182.44;6336885;20;1817017;-42
2021/12/20 10:38:30;;;;;;;;;2.75;2.75;;;;;-146.39;100.00;62182.44;6337440;20;1806520;-41
2021/12/20 10:41:20;;;;;;;;;2.00;2.00;;;;;-146.39;100.00;62182.44;6335968;20;1803438;-42
2021/12/20 10:43:56;;;;;;;;;5.00;2.50;;;;;-146.39;100.00;62182.44;6319319;20;2756527;-39
2021/12/20 10:46:34;;;;;;;;;5.50;3.00;;;;;-146.39;100.00;62182.44;6287722;20;2756656;-41
2021/12/20 10:49:10;;;;;;;;;4.00;3.00;;;;;-146.39;100.00;62182.44;6302814;20;1818082;-39
2021/12/20 10:51:48;;;;;;;;;1.25;1.25;;;;;-146.39;100.00;62182.44;6333382;20;1817006;-41
2021/12/20 10:54:23;;;;;;;;;1.00;1.00;;;;;-146.39;100.00;62182.44;6337168;20;1811735;-40
2021/12/20 10:56:58;;;;;;;;;0.00;0.00;;;;;-146.39;100.00;62182.44;6337892;20;1802876;-41
2021/12/20 10:59:35;;;;;;;;;3.00;1.33;;;;;-146.39;100.00;62182.44;6321427;20;3438782;-43
2021/12/20 11:04:57;;;;;;;;;1.00;1.00;;;;;-146.39;100.00;62182.44;6337355;20;1809658;-41
2021/12/20 11:10:06;;;;;;;;;13.00;11.00;;;;;-146.39;100.00;62182.44;6317622;20;2794137;-42
2021/12/20 11:12:36;;;;;;;;;2.75;2.75;;;;;-146.39;100.00;62182.44;6306039;20;1825362;-42
2021/12/20 11:15:12;;;;;;;;;18.00;17.33;;;;;-146.39;100.00;62182.44;6317507;20;3552326;-41
2021/12/20 11:17:46;;;;;;;;;16.50;12.50;;;;;-146.39;100.00;62182.44;6316208;20;2796128;-40
2021/12/20 11:20:22;;;;;;;;;17.50;13.00;;;;;-146.39;100.00;62182.44;6286943;20;2789932;-41
2021/12/20 11:22:50;;;;;;;;;21.00;18.50;;;;;-146.39;100.00;62182.44;6286363;20;2840932;-41